Time;durP1;ratioP1;P1;durP2;ratioP2;P2;SDS_P1;SDS_P2;PMS_P1;PMS_P2;Temp;Humidity;BMP_temperature;BMP_pressure;BME280_temperature;BME280_humidity;BME280_pressure;Samples;Min_cycle;Max_cycle;Signal;HPM_P1;HPM_P2
2023/11/24 00:00:36;;;;;;;5.72;0.98;;;9.20;99.90;;;;;;5012936;28;20030;-48
2023/11/24 00:03:02;;;;;;;11.27;1.77;;;9.20;99.90;;;;;;5013333;28;20100;-53
2023/11/24 00:05:27;;;;;;;11.07;1.63;;;9.20;99.90;;;;;;5013191;28;20034;-53
2023/11/24 00:07:53;;;;;;;10.83;1.73;;;9.20;99.90;;;;;;5013075;28;20467;-52
2023/11/24 00:10:19;;;;;;;6.53;1.73;;;9.20;99.90;;;;;;5013038;28;20041;-53
2023/11/24 00:12:44;;;;;;;5.83;1.33;;;9.20;99.90;;;;;;5011948;28;20050;-53
2023/11/24 00:15:10;;;;;;;15.73;2.20;;;9.20;99.90;;;;;;5013401;28;20037;-53
2023/11/24 00:17:39;;;;;;;9.27;1.37;;;9.20;99.90;;;;;;5013297;28;20061;-53
2023/11/24 00:20:10;;;;;;;11.82;1.58;;;9.20;99.90;;;;;;5011465;28;20070;-52
2023/11/24 00:22:35;;;;;;;6.10;1.70;;;9.20;99.90;;;;;;5011288;28;20533;-51
2023/11/24 00:25:02;;;;;;;12.83;2.10;;;9.20;99.90;;;;;;5013334;28;20034;-52
2023/11/24 00:27:27;;;;;;;10.13;1.50;;;9.30;99.90;;;;;;5013233;28;20053;-54
2023/11/24 00:29:54;;;;;;;8.70;1.77;;;9.20;99.90;;;;;;5012773;28;20034;-54
2023/11/24 00:32:19;;;;;;;7.13;1.70;;;9.10;99.90;;;;;;5028236;28;20447;-53
2023/11/24 00:34:45;;;;;;;8.70;1.40;;;9.10;99.90;;;;;;5027961;28;20045;-54
2023/11/24 00:37:11;;;;;;;7.97;1.50;;;9.10;99.90;;;;;;5027916;28;20042;-53
2023/11/24 00:39:37;;;;;;;15.30;3.10;;;9.10;99.90;;;;;;5027338;28;20033;-53
2023/11/24 00:42:03;;;;;;;10.23;1.77;;;9.10;99.90;;;;;;5011359;28;20032;-53
2023/11/24 00:44:29;;;;;;;9.47;1.73;;;9.00;99.90;;;;;;5027976;28;20032;-51
2023/11/24 00:46:55;;;;;;;3.70;0.90;;;9.00;99.90;;;;;;5012429;28;20041;-53
2023/11/24 00:49:20;;;;;;;8.17;1.80;;;9.00;99.90;;;;;;5027456;28;20489;-50
2023/11/24 00:51:47;;;;;;;9.67;1.43;;;8.80;99.90;;;;;;5011140;28;20029;-52
2023/11/24 00:54:12;;;;;;;3.70;0.80;;;8.70;99.90;;;;;;5028829;28;20128;-53
2023/11/24 00:56:38;;;;;;;4.60;1.10;;;8.70;99.90;;;;;;5027300;28;20232;-53
2023/11/24 00:59:05;;;;;;;9.80;1.17;;;8.50;99.90;;;;;;5010695;28;20046;-53
2023/11/24 01:01:32;;;;;;;8.50;1.27;;;8.40;99.90;;;;;;5012275;28;20040;-53
2023/11/24 01:03:58;;;;;;;5.60;1.17;;;8.40;99.90;;;;;;5012376;28;20083;-53
2023/11/24 01:06:24;;;;;;;8.40;1.53;;;8.30;99.90;;;;;;5027304;28;20026;-52
2023/11/24 01:08:50;;;;;;;6.80;1.27;;;8.30;99.90;;;;;;5026832;28;20038;-51
2023/11/24 01:11:16;;;;;;;9.70;1.10;;;8.30;99.90;;;;;;5011968;28;20033;-51
2023/11/24 01:13:42;;;;;;;5.00;0.90;;;8.20;99.90;;;;;;5012258;28;20049;-50
2023/11/24 01:16:08;;;;;;;6.10;0.80;;;8.20;99.90;;;;;;5011889;28;20083;-53
2023/11/24 01:18:36;;;;;;;4.47;0.90;;;8.10;99.90;;;;;;5011670;28;20084;-52
2023/11/24 01:21:02;;;;;;;5.73;1.23;;;8.10;99.90;;;;;;5026897;28;20506;-53
2023/11/24 01:23:28;;;;;;;5.07;0.70;;;8.00;99.90;;;;;;5010835;28;20083;-50
2023/11/24 01:25:54;;;;;;;3.33;0.70;;;8.00;99.90;;;;;;5011826;28;20038;-51
2023/11/24 01:28:22;;;;;;;5.03;0.60;;;8.00;99.90;;;;;;5026809;28;20179;-52
2023/11/24 01:30:48;;;;;;;2.23;0.60;;;7.90;99.90;;;;;;5026481;28;20029;-52
2023/11/24 01:33:14;;;;;;;5.80;0.77;;;7.90;99.90;;;;;;5011829;28;20041;-52
2023/11/24 01:35:39;;;;;;;7.50;0.50;;;7.80;99.90;;;;;;5011743;28;20120;-53
2023/11/24 01:38:05;;;;;;;4.83;0.63;;;7.90;99.90;;;;;;5010356;28;20042;-52
2023/11/24 01:40:31;;;;;;;4.03;0.30;;;7.80;99.90;;;;;;5026276;28;20030;-50
2023/11/24 01:42:56;;;;;;;7.63;0.80;;;7.80;99.90;;;;;;5026762;28;20100;-50
2023/11/24 01:45:22;;;;;;;1.43;0.40;;;7.80;99.90;;;;;;5026660;28;20040;-52
2023/11/24 01:47:47;;;;;;;5.20;0.90;;;7.70;99.90;;;;;;5011482;28;20034;-53
2023/11/24 01:50:15;;;;;;;1.37;0.33;;;7.70;99.90;;;;;;5011058;28;20028;-53
2023/11/24 01:52:42;;;;;;;2.43;0.70;;;7.70;99.90;;;;;;5011542;28;20042;-50
2023/11/24 01:55:12;;;;;;;3.70;0.70;;;7.60;99.90;;;;;;5011640;28;20041;-52
2023/11/24 01:57:39;;;;;;;3.47;1.10;;;7.70;99.90;;;;;;5011827;28;20506;-53
2023/11/24 02:00:12;;;;;;;2.97;0.70;;;7.60;99.90;;;;;;5026254;28;20481;-51
2023/11/24 02:02:40;;;;;;;5.00;0.80;;;7.70;99.90;;;;;;5011548;28;20029;-51
2023/11/24 02:05:07;;;;;;;4.93;0.70;;;7.60;99.90;;;;;;5026503;28;20030;-50
2023/11/24 02:07:32;;;;;;;2.10;0.83;;;7.60;99.90;;;;;;5026469;28;20038;-50
2023/11/24 02:09:59;;;;;;;9.20;1.60;;;7.60;99.90;;;;;;5026049;28;20125;-53
2023/11/24 02:12:25;;;;;;;6.53;0.80;;;7.50;99.90;;;;;;5026587;28;20077;-53
2023/11/24 02:14:50;;;;;;;4.50;0.77;;;7.50;99.90;;;;;;5026840;28;20070;-54
2023/11/24 02:17:16;;;;;;;8.60;0.83;;;7.40;99.90;;;;;;5011488;28;20111;-53
2023/11/24 02:19:43;;;;;;;9.07;1.00;;;7.40;99.90;;;;;;5025955;28;20508;-51
2023/11/24 02:22:09;;;;;;;6.43;0.70;;;7.30;99.90;;;;;;5026519;28;20030;-51
2023/11/24 02:24:34;;;;;;;4.03;1.23;;;7.20;99.90;;;;;;5026284;28;20064;-53
2023/11/24 02:27:00;;;;;;;5.47;0.77;;;7.20;99.90;;;;;;5026407;28;20046;-52
2023/11/24 02:29:25;;;;;;;6.10;1.13;;;7.20;99.90;;;;;;5025736;28;20041;-53
2023/11/24 02:31:51;;;;;;;14.90;2.03;;;7.10;99.90;;;;;;5026389;28;20040;-52
2023/11/24 02:34:18;;;;;;;8.40;1.40;;;7.10;99.90;;;;;;5026333;28;20121;-53
2023/11/24 02:36:44;;;;;;;6.17;0.80;;;7.00;99.90;;;;;;5026217;28;20037;-53
2023/11/24 02:39:09;;;;;;;5.33;1.00;;;7.10;99.90;;;;;;5025744;28;20030;-52
2023/11/24 02:41:35;;;;;;;3.67;0.70;;;7.10;99.90;;;;;;5011167;28;20026;-54
2023/11/24 02:44:01;;;;;;;4.33;1.03;;;7.00;99.90;;;;;;5011113;28;20030;-53
2023/11/24 02:46:27;;;;;;;7.93;1.10;;;7.00;99.90;;;;;;5027709;28;20030;-53
2023/11/24 02:48:52;;;;;;;5.33;1.03;;;7.00;99.90;;;;;;5013227;28;20100;-52
2023/11/24 02:51:18;;;;;;;10.70;1.17;;;7.00;99.90;;;;;;5030105;28;20044;-54
2023/11/24 02:53:45;;;;;;;14.23;2.63;;;7.00;99.90;;;;;;5014954;28;20030;-54
2023/11/24 02:56:11;;;;;;;5.87;1.17;;;7.00;99.90;;;;;;5032309;28;20091;-53
2023/11/24 02:58:37;;;;;;;6.33;0.83;;;7.00;99.90;;;;;;5034614;28;20033;-53
2023/11/24 03:01:04;;;;;;;4.27;1.20;;;7.00;99.90;;;;;;5033087;28;20482;-52
2023/11/24 03:03:31;;;;;;;6.30;1.40;;;7.00;99.90;;;;;;5016765;28;20390;-53
2023/11/24 03:06:00;;;;;;;8.77;0.97;;;7.00;99.90;;;;;;5032918;28;20030;-53
2023/11/24 03:08:26;;;;;;;2.55;0.63;;;7.10;99.90;;;;;;5032710;28;20037;-50
2023/11/24 03:10:52;;;;;;;6.10;1.53;;;7.10;99.90;;;;;;5034138;28;20423;-51
2023/11/24 03:13:19;;;;;;;8.97;1.00;;;7.10;99.90;;;;;;5034255;28;20455;-54
2023/11/24 03:15:45;;;;;;;3.90;0.87;;;7.10;99.90;;;;;;5034291;28;20087;-52
2023/11/24 03:18:12;;;;;;;6.17;1.20;;;7.10;99.90;;;;;;5034079;28;20504;-50
2023/11/24 03:20:38;;;;;;;8.03;1.77;;;7.10;99.90;;;;;;5032211;28;20624;-52
2023/11/24 03:23:04;;;;;;;5.57;1.27;;;7.10;99.90;;;;;;5034131;28;20029;-51
2023/11/24 03:25:30;;;;;;;5.67;1.20;;;7.20;99.90;;;;;;5032410;28;20567;-53
2023/11/24 03:27:56;;;;;;;6.60;1.23;;;7.30;99.90;;;;;;5032300;28;20105;-53
2023/11/24 03:30:23;;;;;;;9.00;1.60;;;7.20;99.90;;;;;;5031916;28;20032;-54
2023/11/24 03:32:49;;;;;;;10.20;1.47;;;7.30;99.90;;;;;;5033739;28;20030;-53
2023/11/24 03:35:15;;;;;;;5.07;1.60;;;7.40;99.90;;;;;;5032123;28;20394;-52
2023/11/24 03:37:42;;;;;;;11.47;2.30;;;7.40;99.90;;;;;;5031982;28;20041;-50
2023/11/24 03:40:09;;;;;;;13.83;2.80;;;7.30;99.90;;;;;;5031379;28;20132;-53
2023/11/24 03:42:35;;;;;;;17.10;3.57;;;7.40;99.90;;;;;;5033614;28;20029;-53
2023/11/24 03:45:01;;;;;;;19.43;2.80;;;7.40;99.90;;;;;;5033477;28;20084;-53
2023/11/24 03:47:28;;;;;;;17.60;3.10;;;7.40;99.90;;;;;;5033417;28;20104;-53
2023/11/24 03:49:54;;;;;;;12.27;2.63;;;7.40;99.90;;;;;;5032961;28;20091;-53
2023/11/24 03:52:20;;;;;;;9.13;1.97;;;7.40;99.90;;;;;;5033554;28;20401;-53
2023/11/24 03:54:46;;;;;;;9.37;1.23;;;7.40;99.90;;;;;;5033420;28;20030;-54
2023/11/24 03:57:12;;;;;;;7.80;1.90;;;7.40;99.90;;;;;;5032792;28;20064;-51
2023/11/24 03:59:38;;;;;;;7.63;1.87;;;7.40;99.90;;;;;;5032389;28;20082;-53
2023/11/24 04:02:04;;;;;;;11.03;2.20;;;7.40;99.90;;;;;;5031641;28;20029;-53
2023/11/24 04:04:30;;;;;;;12.10;2.47;;;7.40;99.90;;;;;;5031443;28;20057;-54
2023/11/24 04:06:55;;;;;;;8.60;1.97;;;7.40;99.90;;;;;;5031580;28;20060;-53
2023/11/24 04:09:21;;;;;;;12.97;2.97;;;7.40;99.90;;;;;;5032581;28;20147;-52
2023/11/24 04:11:47;;;;;;;13.57;2.30;;;7.40;99.90;;;;;;5032832;28;20117;-53
2023/11/24 04:14:12;;;;;;;12.00;2.93;;;7.40;99.90;;;;;;5031343;28;20072;-52
2023/11/24 04:16:39;;;;;;;11.73;2.93;;;7.30;99.90;;;;;;5031249;28;20451;-54
2023/11/24 04:19:06;;;;;;;8.20;1.67;;;7.40;99.90;;;;;;5030964;28;20060;-54
2023/11/24 04:21:32;;;;;;;11.53;1.30;;;7.40;99.90;;;;;;5031283;28;20052;-53
2023/11/24 04:23:57;;;;;;;9.13;1.57;;;7.50;99.90;;;;;;5031307;28;20067;-53
2023/11/24 04:26:23;;;;;;;8.03;1.80;;;7.50;99.90;;;;;;5031140;28;20091;-52
2023/11/24 04:28:48;;;;;;;12.80;1.57;;;7.60;99.90;;;;;;5032338;28;20041;-52
2023/11/24 04:31:14;;;;;;;11.50;2.10;;;7.50;99.90;;;;;;5032252;28;20052;-52
2023/11/24 04:33:41;;;;;;;9.73;1.60;;;7.50;99.90;;;;;;5032368;28;20436;-53
2023/11/24 04:36:07;;;;;;;3.10;1.10;;;7.50;99.90;;;;;;5032304;28;20045;-52
2023/11/24 04:38:32;;;;;;;9.33;1.40;;;7.50;99.90;;;;;;5032145;28;20079;-53
2023/11/24 04:40:58;;;;;;;7.47;0.80;;;7.50;99.90;;;;;;5032172;28;20622;-53
2023/11/24 04:43:24;;;;;;;8.30;1.17;;;7.40;99.90;;;;;;5032301;28;20045;-53
2023/11/24 04:45:50;;;;;;;4.80;0.80;;;7.50;99.90;;;;;;5032399;28;20367;-53
2023/11/24 04:48:16;;;;;;;4.97;0.80;;;7.40;99.90;;;;;;5032025;28;20390;-50
2023/11/24 04:50:42;;;;;;;4.00;0.60;;;7.40;99.90;;;;;;5031972;28;20025;-53
2023/11/24 04:53:07;;;;;;;5.27;1.07;;;7.40;99.90;;;;;;5032228;28;20033;-53
2023/11/24 04:55:33;;;;;;;8.53;1.33;;;7.40;99.90;;;;;;5030654;28;20064;-53
2023/11/24 04:57:59;;;;;;;9.20;1.43;;;7.40;99.90;;;;;;5031904;28;20375;-53
2023/11/24 05:00:24;;;;;;;6.07;0.97;;;7.30;99.90;;;;;;5031306;28;20136;-51
2023/11/24 05:02:50;;;;;;;4.07;1.20;;;7.40;99.90;;;;;;5031952;28;20625;-53
2023/11/24 05:05:18;;;;;;;11.60;3.23;;;7.30;99.90;;;;;;5031704;28;20033;-53
2023/11/24 05:07:44;;;;;;;4.97;0.93;;;7.30;99.90;;;;;;5030705;28;20530;-53
2023/11/24 05:10:10;;;;;;;2.30;0.63;;;7.30;99.90;;;;;;5031133;28;20047;-52
2023/11/24 05:12:36;;;;;;;7.63;0.80;;;7.20;99.90;;;;;;5031956;28;20060;-53
2023/11/24 05:15:07;;;;;;;3.07;0.80;;;7.20;99.90;;;;;;5032019;28;20029;-53
2023/11/24 05:17:34;;;;;;;4.23;0.50;;;7.20;99.90;;;;;;5031900;28;20502;-52
2023/11/24 05:20:00;;;;;;;4.30;0.80;;;7.20;99.90;;;;;;5031272;28;20440;-52
2023/11/24 05:22:25;;;;;;;5.60;0.97;;;7.10;99.90;;;;;;5031605;28;20025;-50
2023/11/24 05:24:51;;;;;;;1.77;0.63;;;7.10;99.90;;;;;;5019837;28;20029;-53
2023/11/24 05:27:16;;;;;;;6.37;1.00;;;7.00;99.90;;;;;;5011761;28;20064;-53
2023/11/24 05:29:42;;;;;;;4.90;0.57;;;7.00;99.90;;;;;;5020409;28;20081;-50
2023/11/24 05:32:07;;;;;;;2.53;0.63;;;7.00;99.90;;;;;;5022768;28;20072;-51
2023/11/24 05:34:35;;;;;;;3.27;0.70;;;7.00;99.90;;;;;;5027555;28;20239;-49
2023/11/24 05:37:05;;;;;;;2.70;0.83;;;7.00;99.90;;;;;;5027871;28;20390;-49
2023/11/24 05:39:31;;;;;;;3.20;0.50;;;7.00;99.90;;;;;;5028527;28;20064;-52
2023/11/24 05:41:58;;;;;;;6.47;1.30;;;7.00;99.90;;;;;;5029297;28;20033;-53
2023/11/24 05:44:24;;;;;;;8.80;1.50;;;7.00;99.90;;;;;;5028833;28;20378;-52
2023/11/24 05:46:50;;;;;;;11.20;1.67;;;7.00;99.90;;;;;;5037298;28;20029;-50
2023/11/24 05:49:15;;;;;;;6.97;1.20;;;7.00;99.90;;;;;;5044307;28;20084;-51
2023/11/24 05:51:41;;;;;;;9.40;1.67;;;6.90;99.90;;;;;;5049323;28;20029;-52
2023/11/24 05:54:07;;;;;;;4.23;1.03;;;6.90;99.90;;;;;;5045344;28;20138;-51
2023/11/24 05:56:33;;;;;;;7.00;1.43;;;6.90;99.90;;;;;;5031632;28;20025;-52
2023/11/24 05:58:58;;;;;;;2.93;1.00;;;6.90;99.90;;;;;;5028266;28;20091;-48
2023/11/24 06:01:24;;;;;;;8.67;1.97;;;6.80;99.90;;;;;;5037462;28;20026;-53
2023/11/24 06:03:50;;;;;;;5.67;0.90;;;6.80;99.90;;;;;;5028857;28;20504;-49
2023/11/24 06:06:15;;;;;;;4.77;0.90;;;6.80;99.90;;;;;;5047526;28;20059;-50
2023/11/24 06:08:41;;;;;;;6.97;1.33;;;6.80;99.90;;;;;;5029691;28;20076;-48
2023/11/24 06:11:07;;;;;;;4.90;0.80;;;6.80;99.90;;;;;;5048295;28;20037;-49
2023/11/24 06:13:33;;;;;;;3.73;1.13;;;6.90;99.90;;;;;;5030778;28;20113;-52
2023/11/24 06:15:58;;;;;;;5.57;1.00;;;6.90;99.90;;;;;;5028654;28;20080;-53
2023/11/24 06:18:25;;;;;;;5.53;0.90;;;6.90;99.90;;;;;;5043017;28;20469;-51
2023/11/24 06:20:51;;;;;;;3.77;0.90;;;6.90;99.90;;;;;;5029074;28;20029;-51
2023/11/24 06:23:17;;;;;;;5.03;1.23;;;6.90;99.90;;;;;;5036584;28;20098;-50
2023/11/24 06:25:43;;;;;;;4.90;0.70;;;6.90;99.90;;;;;;5034987;28;20118;-53
2023/11/24 06:28:09;;;;;;;4.73;0.87;;;6.90;99.90;;;;;;5052416;28;20480;-53
2023/11/24 06:30:34;;;;;;;6.43;0.80;;;6.90;99.90;;;;;;5052273;28;20059;-54
2023/11/24 06:33:00;;;;;;;4.93;1.00;;;7.00;99.90;;;;;;5048006;28;20021;-51
2023/11/24 06:35:25;;;;;;;6.33;0.80;;;7.00;99.90;;;;;;5048824;28;20109;-50
2023/11/24 06:37:51;;;;;;;4.13;0.80;;;6.90;99.90;;;;;;5035574;28;20031;-54
2023/11/24 06:40:17;;;;;;;6.67;1.40;;;7.00;99.90;;;;;;5051520;28;20044;-52
2023/11/24 06:42:42;;;;;;;7.30;1.27;;;7.00;99.90;;;;;;5051938;28;20056;-54
2023/11/24 06:45:09;;;;;;;10.43;2.00;;;7.00;99.90;;;;;;5038240;28;20109;-52
2023/11/24 06:47:39;;;;;;;6.47;2.00;;;7.00;99.90;;;;;;5041129;28;20021;-54
2023/11/24 06:50:09;;;;;;;12.53;2.40;;;6.90;99.90;;;;;;5039431;28;20130;-52
2023/11/24 06:52:35;;;;;;;10.57;2.23;;;6.90;99.90;;;;;;5043532;28;20576;-53
2023/11/24 06:55:01;;;;;;;4.67;1.20;;;6.90;99.90;;;;;;5051284;28;20025;-52
2023/11/24 06:57:26;;;;;;;5.70;1.20;;;6.80;99.90;;;;;;5051709;28;20076;-52
2023/11/24 06:59:52;;;;;;;3.87;0.80;;;6.80;99.90;;;;;;5039303;28;20397;-51
2023/11/24 07:02:18;;;;;;;4.03;0.73;;;6.70;99.90;;;;;;5051644;28;20033;-50
2023/11/24 07:04:44;;;;;;;3.47;0.70;;;6.60;99.90;;;;;;5051586;28;20060;-51
2023/11/24 07:07:10;;;;;;;6.10;0.90;;;6.60;99.90;;;;;;5043195;28;20481;-50
2023/11/24 07:09:36;;;;;;;5.73;0.87;;;6.40;99.90;;;;;;5034226;28;20037;-54
2023/11/24 07:12:02;;;;;;;5.50;0.93;;;6.40;99.90;;;;;;5051223;28;20033;-50
2023/11/24 07:14:28;;;;;;;1.90;0.57;;;6.30;99.90;;;;;;5033856;28;20108;-53
2023/11/24 07:16:53;;;;;;;4.17;0.70;;;6.20;99.90;;;;;;5031412;28;20116;-53
2023/11/24 07:19:20;;;;;;;5.87;1.13;;;6.10;99.90;;;;;;5038882;28;20025;-51
2023/11/24 07:21:46;;;;;;;8.90;1.17;;;6.00;99.90;;;;;;5038076;28;20393;-53
2023/11/24 07:24:11;;;;;;;5.20;0.70;;;6.00;99.90;;;;;;5047613;28;20013;-52
2023/11/24 07:26:38;;;;;;;3.20;0.63;;;6.00;99.90;;;;;;5034570;28;20021;-50
2023/11/24 07:29:03;;;;;;;5.93;1.83;;;5.90;99.90;;;;;;5050335;28;20423;-51
2023/11/24 07:31:29;;;;;;;5.87;1.43;;;5.90;99.90;;;;;;5049387;28;20072;-51
2023/11/24 07:33:55;;;;;;;4.70;1.00;;;5.90;99.90;;;;;;5045944;28;20033;-53
2023/11/24 07:36:20;;;;;;;10.17;1.40;;;5.90;99.90;;;;;;5047491;28;20075;-53
2023/11/24 07:38:47;;;;;;;11.30;2.13;;;5.90;99.90;;;;;;5031773;28;20112;-52
2023/11/24 07:41:12;;;;;;;15.07;2.77;;;5.90;99.90;;;;;;5044003;28;20021;-52
2023/11/24 07:43:38;;;;;;;15.07;3.47;;;6.00;99.90;;;;;;5045439;28;20037;-57
2023/11/24 07:46:07;;;;;;;15.83;3.50;;;6.00;99.90;;;;;;5046186;28;20026;-52
2023/11/24 07:48:35;;;;;;;19.35;3.75;;;6.00;99.90;;;;;;5042250;28;20091;-52
2023/11/24 07:51:05;;;;;;;10.13;3.27;;;6.00;99.90;;;;;;5027506;28;20029;-51
2023/11/24 07:53:32;;;;;;;13.40;2.90;;;6.10;99.90;;;;;;5046414;28;20373;-49
2023/11/24 07:55:58;;;;;;;3.80;1.07;;;6.20;99.90;;;;;;5050433;28;20032;-54
2023/11/24 07:58:24;;;;;;;4.33;1.10;;;6.30;99.90;;;;;;5050153;28;20115;-53
2023/11/24 08:00:49;;;;;;;7.10;0.97;;;6.40;99.90;;;;;;5040207;28;20108;-53
2023/11/24 08:03:17;;;;;;;6.57;1.00;;;6.40;99.90;;;;;;5049840;28;20028;-53
2023/11/24 08:05:43;;;;;;;5.13;1.20;;;6.30;99.90;;;;;;5050444;28;20025;-53
2023/11/24 08:08:09;;;;;;;4.00;1.60;;;6.20;99.90;;;;;;5037469;28;20095;-54
2023/11/24 08:10:35;;;;;;;3.80;0.90;;;6.20;99.90;;;;;;5030166;28;20132;-51
2023/11/24 08:13:02;;;;;;;3.47;0.97;;;6.10;99.90;;;;;;5050200;28;20139;-51
2023/11/24 08:15:27;;;;;;;3.87;0.67;;;6.20;99.90;;;;;;5050226;28;20101;-53
2023/11/24 08:17:53;;;;;;;1.60;0.43;;;6.20;99.90;;;;;;5049766;28;20036;-52
2023/11/24 08:20:19;;;;;;;5.77;1.43;;;6.20;99.90;;;;;;5050028;28;20702;-53
2023/11/24 08:22:45;;;;;;;3.17;1.00;;;6.20;99.90;;;;;;5044860;28;20509;-52
2023/11/24 08:25:11;;;;;;;8.03;1.13;;;6.30;99.90;;;;;;5050405;28;20104;-53
2023/11/24 08:27:38;;;;;;;4.10;1.07;;;6.30;99.90;;;;;;5041856;28;20451;-54
2023/11/24 08:30:10;;;;;;;4.33;1.17;;;6.50;99.90;;;;;;5030020;28;20399;-51
2023/11/24 08:32:37;;;;;;;8.23;1.27;;;6.60;99.90;;;;;;5030099;28;20028;-55
2023/11/24 08:35:04;;;;;;;4.87;1.07;;;6.60;99.90;;;;;;5036179;28;20036;-54
2023/11/24 08:37:30;;;;;;;2.90;0.90;;;6.70;99.90;;;;;;5041529;28;20347;-54
2023/11/24 08:39:56;;;;;;;3.70;0.80;;;6.70;99.90;;;;;;5048619;28;20181;-52
2023/11/24 08:42:25;;;;;;;3.40;0.80;;;6.70;99.90;;;;;;5035265;28;20033;-54
2023/11/24 08:44:51;;;;;;;2.47;0.77;;;6.60;99.90;;;;;;5047733;28;20025;-57
2023/11/24 08:47:17;;;;;;;0.97;0.40;;;6.60;99.90;;;;;;5036214;28;20018;-52
2023/11/24 08:49:42;;;;;;;3.83;0.73;;;6.50;99.90;;;;;;5046324;28;20041;-56
2023/11/24 08:52:09;;;;;;;6.70;1.00;;;6.60;99.90;;;;;;5049850;28;20036;-55
2023/11/24 08:54:36;;;;;;;2.00;0.60;;;6.60;99.90;;;;;;5034287;28;20108;-51
2023/11/24 08:57:05;;;;;;;4.67;0.67;;;6.70;99.90;;;;;;5049061;28;20401;-55
2023/11/24 08:59:31;;;;;;;2.67;0.57;;;6.80;99.90;;;;;;5042243;28;20122;-52
2023/11/24 09:01:56;;;;;;;2.07;0.50;;;6.90;99.90;;;;;;5032157;28;20049;-53
2023/11/24 09:04:23;;;;;;;5.40;0.83;;;6.90;99.90;;;;;;5036095;28;20036;-51
2023/11/24 09:06:50;;;;;;;3.63;0.67;;;6.80;99.90;;;;;;5040460;28;20025;-52
2023/11/24 09:09:15;;;;;;;4.37;0.53;;;6.70;99.90;;;;;;5029426;28;20104;-53
2023/11/24 09:11:41;;;;;;;4.40;0.60;;;6.80;99.90;;;;;;5038034;28;20144;-53
2023/11/24 09:14:07;;;;;;;3.43;0.60;;;6.80;99.90;;;;;;5037209;28;20029;-54
2023/11/24 09:16:34;;;;;;;3.00;0.50;;;6.80;99.90;;;;;;5033942;28;20029;-53
2023/11/24 09:19:00;;;;;;;1.70;0.60;;;6.90;99.90;;;;;;5031472;28;20048;-50
2023/11/24 09:21:26;;;;;;;3.87;0.60;;;7.00;99.90;;;;;;5043711;28;20030;-55
2023/11/24 09:23:52;;;;;;;5.10;0.63;;;7.10;99.90;;;;;;5031281;28;20462;-49
2023/11/24 09:26:18;;;;;;;7.43;0.90;;;7.10;99.90;;;;;;5035585;28;20029;-54
2023/11/24 09:28:44;;;;;;;3.13;0.70;;;7.10;99.90;;;;;;5032397;28;20445;-49
2023/11/24 09:31:12;;;;;;;5.30;0.93;;;7.00;99.90;;;;;;5046153;28;20033;-53
2023/11/24 09:33:38;;;;;;;2.93;0.67;;;7.00;99.90;;;;;;5037577;28;20458;-49
2023/11/24 09:36:06;;;;;;;4.10;0.70;;;7.00;99.90;;;;;;5030422;28;20093;-53
2023/11/24 09:38:33;;;;;;;3.80;0.93;;;7.00;99.90;;;;;;5033854;28;20030;-52
2023/11/24 09:41:11;;;;;;;2.40;0.70;;;7.10;99.90;;;;;;5029047;28;20030;-50
2023/11/24 09:43:37;;;;;;;3.73;0.57;;;7.00;99.90;;;;;;5044750;28;20029;-51
2023/11/24 09:46:04;;;;;;;1.97;0.50;;;7.00;99.90;;;;;;5026550;28;20029;-49
2023/11/24 09:48:33;;;;;;;2.00;0.53;;;7.10;99.90;;;;;;5024712;28;20033;-52
2023/11/24 09:51:03;;;;;;;2.13;0.60;;;7.10;99.90;;;;;;5026980;28;20028;-48
2023/11/24 09:53:33;;;;;;;3.70;0.50;;;7.10;99.90;;;;;;5029752;28;20030;-51
2023/11/24 09:56:03;;;;;;;3.83;0.40;;;6.90;99.90;;;;;;5026531;28;20401;-49
2023/11/24 09:58:32;;;;;;;3.17;0.83;;;6.80;99.90;;;;;;5029761;28;20025;-51
2023/11/24 10:01:16;;;;;;;3.42;0.50;;;6.80;99.90;;;;;;5029031;28;20389;-50
2023/11/24 10:03:50;;;;;;;3.83;0.70;;;7.10;99.90;;;;;;5025838;28;20098;-48
2023/11/24 10:06:17;;;;;;;1.97;0.73;;;7.20;99.90;;;;;;5025446;28;20096;-50
2023/11/24 10:08:43;;;;;;;4.10;0.90;;;7.20;99.90;;;;;;5025400;28;20049;-48
2023/11/24 10:11:13;;;;;;;3.63;0.70;;;7.30;99.90;;;;;;5027033;28;20029;-51
2023/11/24 10:13:47;;;;;;;1.67;0.50;;;7.20;99.90;;;;;;5027445;28;20068;-50
2023/11/24 10:16:13;;;;;;;1.73;0.50;;;7.20;99.90;;;;;;5026271;28;20056;-49
2023/11/24 10:18:39;;;;;;;3.37;0.40;;;7.00;99.90;;;;;;5028134;28;20033;-50
2023/11/24 10:24:37;;;;;;;4.97;0.40;;;7.00;99.90;;;;;;5025629;28;20740;-50
2023/11/24 10:27:22;;;;;;;3.30;0.50;;;7.10;99.90;;;;;;5027777;28;20124;-50
2023/11/24 10:29:49;;;;;;;1.33;0.53;;;7.20;99.90;;;;;;5027581;28;20407;-49
2023/11/24 10:32:19;;;;;;;3.47;0.40;;;7.10;99.90;;;;;;5027786;28;20104;-53
2023/11/24 10:34:46;;;;;;;1.60;0.52;;;7.10;99.90;;;;;;5028290;28;20048;-49
2023/11/24 10:37:17;;;;;;;1.70;0.40;;;7.00;99.90;;;;;;5049111;28;20508;-50
2023/11/24 10:39:44;;;;;;;4.17;0.30;;;7.00;99.90;;;;;;5041016;28;20061;-53
2023/11/24 10:42:11;;;;;;;0.50;0.17;;;7.10;99.90;;;;;;5040078;28;20530;-51
2023/11/24 10:44:44;;;;;;;0.40;0.20;;;7.00;99.90;;;;;;5047523;28;20021;-53
2023/11/24 10:47:11;;;;;;;1.80;0.27;;;7.00;99.90;;;;;;5046433;28;20043;-53
2023/11/24 10:49:42;;;;;;;2.00;0.50;;;6.90;99.90;;;;;;5048900;28;20421;-52
2023/11/24 10:52:19;;;;;;;2.03;0.43;;;6.90;99.90;;;;;;5032133;28;20116;-54
2023/11/24 10:54:51;;;;;;;2.63;0.47;;;7.30;99.90;;;;;;5048921;28;20107;-48
2023/11/24 10:57:20;;;;;;;2.43;0.50;;;7.90;99.90;;;;;;5027618;28;20053;-48
2023/11/24 10:59:48;;;;;;;4.13;0.60;;;8.40;99.90;;;;;;5028161;28;20075;-51
2023/11/24 11:02:15;;;;;;;3.23;0.40;;;8.70;99.90;;;;;;5046528;28;20569;-50
2023/11/24 11:05:00;;;;;;;2.43;0.70;;;9.20;99.90;;;;;;5040212;28;20025;-49
2023/11/24 11:07:54;;;;;;;1.33;0.57;;;9.50;99.90;;;;;;5048561;28;20474;-54
2023/11/24 11:10:28;;;;;;;1.90;0.60;;;9.70;99.90;;;;;;5031163;28;20068;-53
2023/11/24 11:12:55;;;;;;;2.20;0.70;;;10.10;99.90;;;;;;5031945;28;20056;-52
2023/11/24 11:15:25;;;;;;;2.23;0.40;;;10.20;99.90;;;;;;5031966;28;20636;-55
2023/11/24 11:18:09;;;;;;;;;;;10.00;99.90;;;;;;5048016;28;20457;-55
2023/11/24 11:20:38;;;;;;;3.40;0.63;;;10.00;99.90;;;;;;5051383;28;19913;-51
2023/11/24 11:23:04;;;;;;;4.60;0.70;;;10.00;99.90;;;;;;5050291;28;20121;-55
2023/11/24 11:25:33;;;;;;;1.37;0.47;;;10.30;99.90;;;;;;5047236;28;20430;-54
2023/11/24 11:28:17;;;;;;;1.85;0.70;;;10.60;99.90;;;;;;5039828;28;20040;-53
2023/11/24 11:30:46;;;;;;;1.13;0.40;;;10.40;99.90;;;;;;5031558;28;20140;-52
2023/11/24 11:33:14;;;;;;;4.65;0.45;;;10.10;99.90;;;;;;5032758;28;20124;-54
2023/11/24 11:35:44;;;;;;;0.80;0.27;;;9.70;99.90;;;;;;5044101;28;20036;-53
2023/11/24 11:38:13;;;;;;;4.27;0.67;;;9.20;99.90;;;;;;5048244;28;20040;-53
2023/11/24 11:40:44;;;;;;;2.20;0.52;;;8.80;99.90;;;;;;5045606;28;20037;-55
2023/11/24 11:43:13;;;;;;;2.97;0.30;;;8.50;99.90;;;;;;5050906;28;20033;-55
2023/11/24 11:45:49;;;;;;;0.80;0.43;;;8.20;99.90;;;;;;5049896;28;20036;-55
2023/11/24 11:48:16;;;;;;;3.23;0.40;;;8.10;99.90;;;;;;5050658;28;20075;-55
2023/11/24 11:50:56;;;;;;;1.50;0.30;;;8.30;99.90;;;;;;5031613;28;20034;-52
2023/11/24 11:53:25;;;;;;;2.35;0.47;;;8.20;99.90;;;;;;5026065;28;20036;-52
2023/11/24 11:55:53;;;;;;;1.65;0.63;;;8.20;99.90;;;;;;5020458;28;20052;-52
2023/11/24 11:58:19;;;;;;;5.57;0.80;;;8.40;99.90;;;;;;5030586;28;20737;-52
2023/11/24 12:00:48;;;;;;;4.37;0.70;;;8.50;99.90;;;;;;5037635;28;20028;-56
2023/11/24 12:03:16;;;;;;;4.32;0.80;;;8.90;99.90;;;;;;5039368;28;20422;-56
2023/11/24 12:05:42;;;;;;;3.07;0.90;;;9.40;99.90;;;;;;5037076;28;20478;-54
2023/11/24 12:08:08;;;;;;;2.47;0.70;;;10.10;99.90;;;;;;5044353;28;20105;-55
2023/11/24 12:10:33;;;;;;;1.70;0.50;;;10.70;99.90;;;;;;5029238;28;20030;-54
2023/11/24 12:13:04;;;;;;;1.43;0.97;;;10.90;99.90;;;;;;5030267;28;20095;-56
2023/11/24 12:15:30;;;;;;;4.13;0.40;;;10.70;99.90;;;;;;5030734;28;20091;-53
2023/11/24 12:17:56;;;;;;;2.90;0.40;;;10.70;99.90;;;;;;5030144;28;20102;-55
2023/11/24 12:20:23;;;;;;;1.87;0.40;;;10.30;99.90;;;;;;5029183;28;20482;-53
2023/11/24 12:22:52;;;;;;;2.60;0.90;;;9.70;99.90;;;;;;5030378;28;20104;-52
2023/11/24 12:25:17;;;;;;;2.05;0.60;;;9.90;99.90;;;;;;5030306;28;20040;-54
2023/11/24 12:27:43;;;;;;;1.70;0.40;;;10.60;99.90;;;;;;5030299;28;20029;-55
2023/11/24 12:30:11;;;;;;;1.80;0.57;;;11.70;99.90;;;;;;5040040;28;20032;-51
2023/11/24 12:32:37;;;;;;;1.20;0.47;;;12.20;99.90;;;;;;5036681;28;20358;-54
2023/11/24 12:35:07;;;;;;;2.45;0.77;;;12.90;99.90;;;;;;5028319;28;20140;-55
2023/11/24 12:37:34;;;;;;;2.83;0.70;;;13.20;99.90;;;;;;5035419;28;20393;-55
2023/11/24 12:40:00;;;;;;;2.72;0.80;;;13.30;99.90;;;;;;5032674;28;20033;-55
2023/11/24 12:42:30;;;;;;;3.28;0.70;;;13.40;99.70;;;;;;5033730;28;20079;-53
2023/11/24 12:45:02;;;;;;;3.05;0.80;;;13.30;99.90;;;;;;5041836;28;20057;-53
2023/11/24 12:47:28;;;;;;;4.80;1.20;;;13.20;99.90;;;;;;5045727;28;20059;-54
2023/11/24 12:50:06;;;;;;;3.17;0.82;;;13.30;99.90;;;;;;5029536;28;20120;-56
2023/11/24 12:52:33;;;;;;;3.72;0.82;;;13.20;99.90;;;;;;5029546;28;20061;-55
2023/11/24 12:55:01;;;;;;;5.95;1.42;;;12.90;99.90;;;;;;5045896;28;20025;-55
2023/11/24 12:57:27;;;;;;;3.67;0.88;;;12.80;99.90;;;;;;5021966;28;20036;-54